Time;durP1;ratioP1;P1;durP2;ratioP2;P2;SDS_P1;SDS_P2;PMS_P1;PMS_P2;Temp;Humidity;BMP_temperature;BMP_pressure;BME280_temperature;BME280_humidity;BME280_pressure;Samples;Min_cycle;Max_cycle;Signal;HPM_P1;HPM_P2
2021/03/29 00:02:48;;;;;;;84.50;36.40;;;;;;;2.84;65.15;100038.78;239761;1193;23105;-76
2021/03/29 00:08:01;;;;;;;92.63;37.57;;;;;;;2.88;64.89;100040.83;239743;1193;23243;-74
2021/03/29 00:13:05;;;;;;;85.10;37.60;;;;;;;2.91;65.24;100036.96;239563;1196;23125;-76
2021/03/29 00:18:09;;;;;;;92.97;39.67;;;;;;;2.92;65.30;100041.22;239764;1196;23016;-74
2021/03/29 00:23:12;;;;;;;95.60;40.60;;;;;;;2.93;65.00;100039.40;239580;1199;23247;-74
2021/03/29 00:28:15;;;;;;;87.65;36.75;;;;;;;2.94;65.06;100041.00;239693;1196;23154;-75
2021/03/29 00:33:18;;;;;;;81.53;35.47;;;;;;;2.99;65.08;100049.15;239617;1196;23115;-74
2021/03/29 00:38:22;;;;;;;74.87;33.27;;;;;;;3.08;65.11;100051.36;239410;1196;23115;-74
2021/03/29 00:43:32;;;;;;;75.77;33.90;;;;;;;3.18;65.54;100050.94;239620;1196;23087;-75
2021/03/29 00:48:37;;;;;;;74.23;32.83;;;;;;;3.25;64.89;100051.72;239891;1195;27285;-74
2021/03/29 00:53:44;;;;;;;67.53;31.63;;;;;;;3.31;65.43;100041.33;239673;1193;23105;-75
2021/03/29 00:58:49;;;;;;;78.97;33.50;;;;;;;3.31;64.96;100049.27;239726;1196;23159;-74
2021/03/29 01:03:58;;;;;;;70.10;32.00;;;;;;;3.29;65.32;100046.83;239428;1196;23108;-75
2021/03/29 01:09:07;;;;;;;70.70;32.03;;;;;;;3.26;65.11;100057.85;239699;1196;23279;-75
2021/03/29 01:14:16;;;;;;;63.07;27.60;;;;;;;3.23;65.17;100058.24;239762;1193;23415;-74
2021/03/29 01:19:46;;;;;;;56.00;25.63;;;;;;;3.25;65.54;100059.67;239823;1199;23112;-74
2021/03/29 01:24:58;;;;;;;59.53;26.30;;;;;;;3.28;65.50;100054.99;239747;1193;23111;-76
2021/03/29 01:30:04;;;;;;;63.40;28.95;;;;;;;3.28;65.89;100053.15;239541;1197;23244;-75
2021/03/29 01:35:19;;;;;;;66.77;28.57;;;;;;;3.23;65.99;100045.00;239705;1193;23227;-75
2021/03/29 01:40:22;;;;;;;59.67;27.07;;;;;;;3.20;65.87;100046.23;239594;1199;23102;-74
2021/03/29 01:45:26;;;;;;;54.70;24.70;;;;;;;3.22;65.84;100046.85;239576;1196;23192;-74
2021/03/29 01:50:38;;;;;;;46.57;22.03;;;;;;;3.30;66.01;100048.44;239944;1196;23102;-75
2021/03/29 01:55:41;;;;;;;41.73;21.77;;;;;;;3.38;66.19;100050.05;239901;1193;23223;-73
2021/03/29 02:00:55;;;;;;;49.73;23.03;;;;;;;3.43;66.17;100045.75;239810;1193;23121;-75
2021/03/29 02:06:01;;;;;;;50.93;22.87;;;;;;;3.48;65.92;100047.77;239618;1194;23135;-74
2021/03/29 02:11:05;;;;;;;45.20;20.70;;;;;;;3.55;66.90;100053.88;239773;1196;23103;-74
2021/03/29 02:16:14;;;;;;;50.15;24.25;;;;;;;3.59;66.84;100043.65;239780;1193;23109;-75
2021/03/29 02:21:23;;;;;;;51.00;23.18;;;;;;;3.59;66.87;100047.10;239643;1193;24718;-74
2021/03/29 02:26:29;;;;;;;46.60;21.87;;;;;;;3.60;66.70;100047.94;239664;1199;23169;-74
2021/03/29 02:31:33;;;;;;;41.93;21.40;;;;;;;3.66;66.54;100054.23;239688;1193;23263;-75
2021/03/29 02:36:35;;;;;;;42.90;20.80;;;;;;;3.75;66.75;100055.63;239664;1196;23104;-74
2021/03/29 02:41:40;;;;;;;42.00;19.47;;;;;;;3.81;66.71;100060.06;239768;1196;23127;-74
2021/03/29 02:46:48;;;;;;;34.70;15.30;;;;;;;3.92;66.78;100055.94;239787;1193;23184;-74
2021/03/29 02:51:51;;;;;;;34.40;16.60;;;;;;;3.97;66.97;100060.59;239648;1193;23136;-74
2021/03/29 02:56:55;;;;;;;31.97;15.47;;;;;;;4.03;67.37;100055.25;239812;1193;23109;-74
2021/03/29 03:01:59;;;;;;;29.50;13.55;;;;;;;4.09;67.30;100050.93;239824;1198;23102;-75
2021/03/29 03:07:03;;;;;;;25.43;12.80;;;;;;;4.17;67.12;100047.19;239498;1193;23135;-74
2021/03/29 03:12:06;;;;;;;22.73;11.63;;;;;;;4.28;67.08;100046.50;239590;1198;23115;-73
2021/03/29 03:17:09;;;;;;;29.05;13.30;;;;;;;4.35;66.93;100057.06;239823;1193;23114;-75
2021/03/29 03:22:12;;;;;;;27.05;14.40;;;;;;;4.38;67.03;100048.67;239806;1196;23155;-74
2021/03/29 03:27:15;;;;;;;35.65;15.60;;;;;;;4.39;66.87;100050.30;239543;1196;24727;-75
2021/03/29 03:32:18;;;;;;;31.50;16.20;;;;;;;4.37;67.13;100047.87;239694;1196;25700;-74
2021/03/29 03:37:22;;;;;;;32.47;14.80;;;;;;;4.35;66.56;100049.94;239680;1193;23113;-74
2021/03/29 03:42:25;;;;;;;28.90;15.80;;;;;;;4.35;67.31;100051.77;239738;1193;23119;-75
2021/03/29 03:47:29;;;;;;;30.97;15.50;;;;;;;4.35;67.30;100039.33;239472;1193;26077;-74
2021/03/29 03:52:33;;;;;;;33.20;15.85;;;;;;;4.35;67.63;100052.59;239842;1198;24752;-75
2021/03/29 03:57:38;;;;;;;29.10;14.93;;;;;;;4.37;67.73;100057.68;240078;1199;24756;-75
2021/03/29 04:02:41;;;;;;;32.20;15.40;;;;;;;4.38;68.25;100052.16;240069;1193;23132;-75
2021/03/29 04:07:50;;;;;;;27.40;14.45;;;;;;;4.39;68.16;100052.95;239724;1194;23108;-74
2021/03/29 04:12:55;;;;;;;32.03;15.37;;;;;;;4.42;68.14;100052.52;239976;1193;23198;-74
2021/03/29 04:17:58;;;;;;;26.03;14.00;;;;;;;4.43;68.54;100059.45;239687;1193;23120;-74
2021/03/29 04:23:02;;;;;;;26.27;13.97;;;;;;;4.44;68.38;100056.58;239957;1193;23151;-74
2021/03/29 04:28:05;;;;;;;26.37;13.93;;;;;;;4.49;68.90;100061.27;240241;1196;24894;-73
2021/03/29 04:33:08;;;;;;;26.50;14.90;;;;;;;4.51;68.46;100064.50;239583;1196;23102;-74
2021/03/29 04:38:11;;;;;;;22.60;13.93;;;;;;;4.55;68.91;100065.69;239764;1193;23125;-74
2021/03/29 04:43:14;;;;;;;27.73;14.20;;;;;;;4.58;68.62;100067.91;239601;1193;23189;-76
2021/03/29 04:48:17;;;;;;;25.40;14.10;;;;;;;4.60;68.54;100062.38;239526;1193;23101;-76
2021/03/29 04:53:20;;;;;;;19.55;11.35;;;;;;;4.63;68.52;100052.16;239661;1193;23110;-75
2021/03/29 04:58:24;;;;;;;18.63;10.77;;;;;;;4.69;68.73;100050.47;239442;1196;23285;-74
2021/03/29 05:03:28;;;;;;;21.45;12.30;;;;;;;4.73;68.89;100058.80;239778;1196;23111;-74
2021/03/29 05:08:31;;;;;;;18.40;11.20;;;;;;;4.79;68.60;100049.97;239665;1199;23109;-74
2021/03/29 05:13:34;;;;;;;21.63;12.70;;;;;;;4.84;68.51;100052.80;239702;1193;23113;-74
2021/03/29 05:18:37;;;;;;;21.00;11.60;;;;;;;4.90;68.63;100049.25;239811;1193;23126;-74
2021/03/29 05:23:41;;;;;;;23.43;12.30;;;;;;;4.96;68.55;100058.98;239631;1196;23263;-75
2021/03/29 05:28:44;;;;;;;25.07;13.93;;;;;;;5.03;68.48;100058.92;239766;1193;23253;-75
2021/03/29 05:33:47;;;;;;;23.20;11.70;;;;;;;5.08;68.53;100056.42;239494;1196;23354;-74
2021/03/29 05:38:50;;;;;;;24.53;13.53;;;;;;;5.13;68.38;100069.87;239572;1196;23115;-73
2021/03/29 05:43:54;;;;;;;25.97;14.27;;;;;;;5.18;68.08;100068.39;239969;1199;23104;-75
2021/03/29 05:48:56;;;;;;;23.63;12.93;;;;;;;5.26;68.18;100060.11;239841;1196;23568;-74
2021/03/29 05:53:59;;;;;;;25.07;14.03;;;;;;;5.38;68.13;100063.66;240329;1193;23102;-75
2021/03/29 06:04:16;;;;;;;23.70;13.10;;;;;;;5.71;67.31;100072.25;240247;1196;23138;-75
2021/03/29 06:09:25;;;;;;;21.47;12.30;;;;;;;5.89;66.95;100074.91;240173;1193;23155;-74
2021/03/29 06:14:29;;;;;;;21.37;12.10;;;;;;;6.07;67.05;100070.58;240469;1193;23111;-75
2021/03/29 06:19:35;;;;;;;22.10;11.53;;;;;;;6.23;66.23;100061.96;240401;1196;23124;-75
2021/03/29 06:24:51;;;;;;;26.45;14.35;;;;;;;6.42;65.86;100065.37;240328;1199;25037;-75
2021/03/29 06:30:13;;;;;;;21.93;13.57;;;;;;;6.64;65.39;100070.13;240707;1191;23212;-75
2021/03/29 06:35:18;;;;;;;24.93;13.47;;;;;;;6.91;64.95;100073.16;240471;1195;23134;-75
2021/03/29 06:40:25;;;;;;;22.40;11.43;;;;;;;7.15;64.54;100073.15;240820;1193;23229;-75
2021/03/29 06:45:36;;;;;;;22.30;12.13;;;;;;;7.36;63.52;100067.19;240500;1193;23099;-75
2021/03/29 06:50:39;;;;;;;24.03;13.83;;;;;;;7.54;63.19;100070.73;242862;1196;23991;-75
2021/03/29 06:55:41;;;;;;;24.83;11.43;;;;;;;7.70;62.05;100077.98;240343;1194;23187;-74
2021/03/29 07:00:45;;;;;;;21.45;11.35;;;;;;;7.87;62.13;100080.70;240301;1193;23142;-75
2021/03/29 07:05:51;;;;;;;21.07;10.63;;;;;;;8.01;60.75;100083.90;240836;1193;23109;-74
2021/03/29 07:10:54;;;;;;;24.83;11.70;;;;;;;8.14;60.79;100071.31;239989;1196;26006;-75
2021/03/29 07:15:59;;;;;;;19.30;10.70;;;;;;;8.30;60.96;100073.20;240080;1193;23237;-76
2021/03/29 07:21:05;;;;;;;21.05;11.00;;;;;;;8.48;60.78;100074.04;239979;1199;23217;-75
2021/03/29 07:26:34;;;;;;;24.10;10.80;;;;;;;8.67;59.23;100075.42;240250;1196;23597;-75
2021/03/29 07:31:42;;;;;;;20.87;10.57;;;;;;;8.88;58.68;100073.89;240168;1196;23259;-75
2021/03/29 07:36:51;;;;;;;19.67;9.33;;;;;;;9.09;57.23;100071.48;240922;1193;23324;-75
2021/03/29 07:42:22;;;;;;;16.60;9.67;;;;;;;9.29;57.08;100092.36;241788;1193;25992;-74
2021/03/29 07:47:47;;;;;;;17.40;8.87;;;;;;;9.48;56.51;100095.52;240029;1196;23107;-75
2021/03/29 07:52:53;;;;;;;18.05;9.40;;;;;;;9.58;56.22;100102.87;240233;1193;23116;-75
2021/03/29 07:57:58;;;;;;;14.63;8.33;;;;;;;9.60;53.82;100092.74;240447;1196;23169;-76
2021/03/29 08:03:11;;;;;;;16.17;8.37;;;;;;;9.61;54.20;100098.89;240084;1193;23125;-75
2021/03/29 08:08:26;;;;;;;14.03;8.33;;;;;;;9.61;53.61;100098.89;240211;1198;23629;-75
2021/03/29 08:13:44;;;;;;;17.17;8.47;;;;;;;9.61;53.58;100105.04;240278;1196;23134;-75
2021/03/29 08:19:12;;;;;;;15.83;7.67;;;;;;;9.65;53.21;100095.45;240206;1193;23224;-75
2021/03/29 08:24:24;;;;;;;14.03;7.33;;;;;;;9.75;53.73;100097.44;240022;1196;28402;-75
2021/03/29 08:29:40;;;;;;;17.13;7.97;;;;;;;9.91;54.07;100093.89;240308;1193;23106;-75
2021/03/29 08:35:04;;;;;;;15.55;7.25;;;;;;;10.08;53.06;100099.14;240602;1193;23082;-76
2021/03/29 08:40:22;;;;;;;15.60;7.30;;;;;;;10.25;52.77;100099.06;240805;1193;23111;-74
2021/03/29 08:45:26;;;;;;;13.80;7.43;;;;;;;10.34;52.18;100099.44;240435;1193;23798;-75
2021/03/29 08:50:34;;;;;;;16.47;8.20;;;;;;;10.47;52.25;100098.20;240593;1193;23100;-75
2021/03/29 08:55:41;;;;;;;14.20;7.53;;;;;;;10.64;52.14;100095.39;242799;1198;23132;-75
2021/03/29 09:00:44;;;;;;;13.17;6.70;;;;;;;10.89;51.24;100105.48;242149;1194;23108;-75
2021/03/29 09:05:48;;;;;;;12.63;7.53;;;;;;;11.13;50.46;100102.42;241510;1193;23110;-75
2021/03/29 09:10:51;;;;;;;14.37;7.70;;;;;;;11.38;51.40;100090.23;243175;1193;23101;-76
2021/03/29 09:15:54;;;;;;;13.27;8.23;;;;;;;11.73;51.28;100081.50;240408;1198;25273;-76
2021/03/29 09:20:57;;;;;;;15.90;9.35;;;;;;;12.07;49.66;100088.33;240474;1193;23063;-77
2021/03/29 09:26:02;;;;;;;17.60;9.07;;;;;;;12.23;49.08;100087.28;240225;1192;23111;-76
2021/03/29 09:31:15;;;;;;;16.13;8.67;;;;;;;12.48;50.53;100104.51;240607;1193;23202;-75
2021/03/29 09:36:22;;;;;;;16.00;9.10;;;;;;;12.74;49.51;100105.30;240710;1196;23437;-76
2021/03/29 09:41:32;;;;;;;16.90;9.65;;;;;;;12.91;49.29;100107.69;241149;1193;23170;-75
2021/03/29 09:46:37;;;;;;;16.00;9.20;;;;;;;13.16;48.28;100114.94;240129;1196;27308;-75
2021/03/29 09:51:41;;;;;;;14.67;8.60;;;;;;;13.39;49.42;100104.67;240081;1193;23239;-75
2021/03/29 09:56:45;;;;;;;13.80;8.15;;;;;;;13.56;47.79;100108.93;240111;1196;23116;-75
2021/03/29 10:01:47;;;;;;;13.80;8.40;;;;;;;13.64;46.97;100116.41;239954;1193;23558;-76
2021/03/29 10:06:53;;;;;;;13.07;6.93;;;;;;;13.67;47.79;100113.19;239975;1193;23265;-75
2021/03/29 10:11:56;;;;;;;15.47;8.07;;;;;;;13.74;47.82;100107.48;239809;1196;23164;-75
2021/03/29 10:17:00;;;;;;;13.75;8.10;;;;;;;13.77;46.93;100104.26;239796;1196;23138;-75
2021/03/29 10:22:18;;;;;;;12.60;7.35;;;;;;;13.89;47.11;100103.92;240327;1196;23133;-76
2021/03/29 10:27:21;;;;;;;10.00;5.90;;;;;;;14.07;47.33;100094.39;240490;1193;23103;-77
2021/03/29 10:32:25;;;;;;;9.60;5.10;;;;;;;14.31;46.99;100099.88;242652;1193;23157;-75
2021/03/29 10:37:32;;;;;;;13.35;5.50;;;;;;;14.49;46.91;100101.92;240116;1196;23118;-75
2021/03/29 10:42:36;;;;;;;10.40;5.60;;;;;;;14.59;45.67;100094.81;240826;1193;26163;-76
2021/03/29 10:47:40;;;;;;;10.95;5.75;;;;;;;14.68;45.58;100085.86;240296;1193;23083;-77
2021/03/29 10:52:43;;;;;;;13.53;8.37;;;;;;;14.85;45.22;100082.73;240621;1196;26727;-75
2021/03/29 10:57:47;;;;;;;10.17;6.00;;;;;;;15.05;44.88;100079.05;246173;1193;23016;-75
2021/03/29 11:02:51;;;;;;;8.77;5.10;;;;;;;15.26;43.89;100078.80;240563;1196;23115;-76
2021/03/29 11:07:54;;;;;;;7.65;4.10;;;;;;;15.43;43.97;100081.06;240424;1193;23102;-79
2021/03/29 11:12:56;;;;;;;7.97;4.20;;;;;;;15.68;44.83;100077.23;240172;1193;23202;-76
2021/03/29 11:17:59;;;;;;;8.73;4.40;;;;;;;15.84;44.04;100075.14;240257;1196;23105;-76
2021/03/29 11:23:02;;;;;;;9.65;4.50;;;;;;;15.82;43.55;100077.34;240360;1199;23122;-76
2021/03/29 11:28:04;;;;;;;6.65;3.65;;;;;;;15.79;43.33;100072.50;240177;1193;23117;-75
2021/03/29 11:33:07;;;;;;;7.85;4.25;;;;;;;15.60;42.76;100068.95;240210;1193;23276;-76
2021/03/29 11:38:10;;;;;;;7.40;3.75;;;;;;;15.49;43.63;100079.89;240063;1193;23103;-76
2021/03/29 11:43:13;;;;;;;7.75;3.60;;;;;;;15.55;43.84;100078.72;240167;1193;23390;-74
2021/03/29 11:48:15;;;;;;;6.20;3.55;;;;;;;15.59;42.94;100073.55;240211;1195;26064;-77
2021/03/29 11:53:18;;;;;;;5.50;2.50;;;;;;;15.51;43.98;100066.89;240276;1199;23122;-77
2021/03/29 11:58:21;;;;;;;6.55;3.10;;;;;;;15.55;44.45;100078.72;240678;1195;23207;-77
2021/03/29 12:08:45;;;;;;;8.65;3.45;;;;;;;15.29;43.22;100069.33;240580;1193;23126;-76
2021/03/29 12:13:48;;;;;;;5.85;2.70;;;;;;;15.13;43.24;100077.59;240710;1196;23114;-76
2021/03/29 12:18:57;;;;;;;14.20;10.20;;;;;;;15.04;44.32;100074.73;240215;1193;23576;-75
2021/03/29 12:24:06;;;;;;;20.05;14.50;;;;;;;14.98;44.44;100069.66;240395;1193;23105;-75
2021/03/29 12:29:14;;;;;;;7.77;5.53;;;;;;;14.89;44.74;100078.38;240294;1193;23351;-76
2021/03/29 13:21:48;;;;;;;4.43;2.17;;;;;;;15.12;46.75;100070.58;240385;1193;23257;-73
2021/03/29 13:26:50;;;;;;;6.25;3.35;;;;;;;14.94;47.07;100071.33;240614;1199;23200;-72
2021/03/29 13:32:14;;;;;;;4.70;2.90;;;;;;;14.81;47.69;100070.11;240275;1199;23124;-72
2021/03/29 13:37:40;;;;;;;5.33;3.00;;;;;;;14.66;48.64;100074.56;239965;1199;23269;-72
2021/03/29 13:42:43;;;;;;;6.40;3.35;;;;;;;14.54;49.37;100074.89;240460;1199;23102;-73
2021/03/29 13:47:46;;;;;;;6.60;3.15;;;;;;;14.42;49.46;100081.74;240196;1199;23124;-72
2021/03/29 13:52:51;;;;;;;6.67;2.93;;;;;;;14.30;50.34;100074.03;240644;1199;23095;-72
2021/03/29 13:57:55;;;;;;;6.40;3.55;;;;;;;14.22;51.60;100082.71;241156;1200;23132;-72
2021/03/29 14:03:00;;;;;;;7.43;4.27;;;;;;;14.12;51.92;100073.60;240195;1198;23145;-72
2021/03/29 14:08:03;;;;;;;7.57;4.40;;;;;;;14.01;52.67;100072.86;241520;1199;23111;-72
2021/03/29 14:13:09;;;;;;;7.05;4.60;;;;;;;13.97;53.17;100062.92;240093;1199;23115;-71
2021/03/29 14:18:17;;;;;;;7.70;5.65;;;;;;;13.85;53.89;100060.56;240086;1200;23116;-73
2021/03/29 14:23:22;;;;;;;7.47;4.27;;;;;;;13.76;54.50;100049.58;240738;1199;23567;-72
2021/03/29 14:28:26;;;;;;;7.17;4.00;;;;;;;13.72;55.41;100058.49;240492;1203;24227;-75
2021/03/29 14:33:29;;;;;;;6.70;4.20;;;;;;;13.83;55.43;100057.35;240193;1199;23118;-72
2021/03/29 14:38:50;;;;;;;9.05;4.20;;;;;;;13.92;55.69;100057.56;241074;1199;23109;-71
2021/03/29 14:49:15;;;;;;;17.75;10.55;;;;;;;13.95;56.04;100051.61;239382;1200;23294;-71
2021/03/29 14:54:18;;;;;;;9.00;5.05;;;;;;;13.88;56.53;100041.17;239353;1200;23132;-71
2021/03/29 14:59:24;;;;;;;6.75;4.70;;;;;;;13.72;57.49;100028.88;239479;1200;23112;-73
2021/03/29 15:04:36;;;;;;;6.33;4.07;;;;;;;13.59;58.46;100024.91;239549;1199;24312;-72
2021/03/29 15:09:40;;;;;;;9.45;4.55;;;;;;;13.31;59.17;100019.09;239550;1199;23121;-72
2021/03/29 15:14:43;;;;;;;9.55;3.95;;;;;;;13.07;60.03;100014.34;239445;1199;23080;-72
2021/03/29 15:19:46;;;;;;;7.47;4.47;;;;;;;12.90;60.69;100003.08;239564;1200;23097;-71
2021/03/29 15:24:49;;;;;;;10.15;5.85;;;;;;;12.74;61.42;99999.64;239956;1200;23108;-72
2021/03/29 15:29:56;;;;;;;8.00;5.10;;;;;;;12.63;61.78;100006.91;239373;1200;23138;-73
2021/03/29 15:34:59;;;;;;;9.80;5.80;;;;;;;12.49;62.37;99995.91;239474;1199;23106;-72
2021/03/29 15:40:03;;;;;;;10.75;6.20;;;;;;;12.36;62.80;99991.10;239533;1199;23141;-72
2021/03/29 15:45:07;;;;;;;14.55;7.70;;;;;;;12.33;63.09;99989.75;239569;1200;23129;-72
2021/03/29 15:50:11;;;;;;;13.75;8.05;;;;;;;12.32;63.52;99983.59;239709;1200;23093;-73
2021/03/29 15:55:14;;;;;;;17.60;9.95;;;;;;;12.38;63.58;99989.77;239656;1202;23111;-73
2021/03/29 16:00:18;;;;;;;15.15;8.95;;;;;;;12.38;63.67;99987.08;239353;1199;23142;-73
2021/03/29 16:05:21;;;;;;;12.00;7.30;;;;;;;12.32;64.07;99991.65;239437;1199;23109;-74
2021/03/29 16:10:23;;;;;;;14.15;7.70;;;;;;;12.11;64.32;99995.40;239271;1199;23190;-73
2021/03/29 16:15:26;;;;;;;12.90;7.50;;;;;;;11.93;64.77;99992.16;239242;1199;23108;-73
2021/03/29 16:20:42;;;;;;;17.77;10.13;;;;;;;11.80;65.04;99977.34;239370;1200;23269;-73
2021/03/29 16:25:49;;;;;;;20.83;11.30;;;;;;;11.75;65.61;100006.89;239337;1199;23136;-73
2021/03/29 16:30:52;;;;;;;24.63;13.63;;;;;;;11.70;65.59;100008.76;239342;1199;23514;-73
2021/03/29 16:35:59;;;;;;;23.77;15.10;;;;;;;11.63;66.22;100004.44;239533;1199;23118;-73
2021/03/29 16:41:03;;;;;;;31.07;18.73;;;;;;;11.55;66.33;99996.89;239546;1200;23121;-72
2021/03/29 16:46:08;;;;;;;26.93;16.60;;;;;;;11.49;67.05;100000.65;239504;1200;23108;-72
2021/03/29 16:51:11;;;;;;;31.63;18.37;;;;;;;11.34;67.57;99995.23;239337;1200;23569;-73
2021/03/29 16:56:14;;;;;;;49.40;27.05;;;;;;;11.24;67.94;99985.28;239630;1199;23394;-73
2021/03/29 17:01:16;;;;;;;46.93;26.03;;;;;;;11.21;68.00;99980.45;239240;1200;23121;-73
2021/03/29 17:06:19;;;;;;;39.93;23.30;;;;;;;11.19;68.29;99990.61;239244;1200;23647;-73
2021/03/29 17:11:22;;;;;;;34.60;19.70;;;;;;;11.11;68.28;99987.38;239246;1199;23122;-72
2021/03/29 17:16:28;;;;;;;30.65;18.80;;;;;;;11.00;68.85;99999.13;239380;1199;23245;-72
2021/03/29 17:21:31;;;;;;;30.40;18.10;;;;;;;10.85;68.86;99993.69;239475;1199;23112;-72
2021/03/29 17:26:34;;;;;;;44.23;24.13;;;;;;;10.76;69.11;99985.34;239346;1199;23095;-73
2021/03/29 17:31:57;;;;;;;37.65;22.35;;;;;;;10.75;69.54;99986.39;239467;1198;23224;-72
2021/03/29 17:37:01;;;;;;;41.80;24.70;;;;;;;10.68;69.55;99981.26;239366;1200;23135;-73
2021/03/29 17:42:05;;;;;;;38.47;23.07;;;;;;;10.62;69.85;99987.67;239399;1200;23117;-72
2021/03/29 17:47:08;;;;;;;39.15;23.40;;;;;;;10.54;69.84;99988.14;239605;1200;23990;-73
2021/03/29 17:52:11;;;;;;;36.37;21.00;;;;;;;10.50;70.22;99998.56;239325;1200;23138;-71
2021/03/29 17:57:15;;;;;;;39.00;23.37;;;;;;;10.42;70.47;99996.36;239279;1199;23196;-73
2021/03/29 18:02:18;;;;;;;45.43;23.53;;;;;;;10.36;70.59;100008.11;239473;1199;23132;-72
2021/03/29 18:07:20;;;;;;;46.30;23.57;;;;;;;10.36;70.52;100016.14;239255;1200;23112;-74
2021/03/29 18:12:24;;;;;;;48.85;27.30;;;;;;;10.36;70.47;100018.83;239378;1199;23114;-73
2021/03/29 18:17:29;;;;;;;51.47;27.30;;;;;;;10.37;70.74;100018.56;239369;1203;23109;-73
2021/03/29 18:22:34;;;;;;;42.10;22.25;;;;;;;10.38;70.26;100014.83;239576;1199;23255;-73
2021/03/29 18:27:37;;;;;;;44.20;22.67;;;;;;;10.38;70.27;100016.69;239383;1200;23590;-73
2021/03/29 18:33:00;;;;;;;34.67;18.43;;;;;;;10.34;70.04;100019.08;239279;1200;23212;-72
2021/03/29 18:38:24;;;;;;;30.83;16.20;;;;;;;10.33;70.26;100020.11;239183;1199;23125;-74
2021/03/29 18:43:35;;;;;;;29.15;15.15;;;;;;;10.32;69.71;100020.37;239422;1200;23169;-72
2021/03/29 18:48:38;;;;;;;30.80;15.05;;;;;;;10.32;69.67;100018.48;239240;1199;23311;-73
2021/03/29 18:53:40;;;;;;;26.30;14.40;;;;;;;10.30;69.69;100025.16;239428;1199;23102;-73
2021/03/29 18:58:43;;;;;;;25.90;14.55;;;;;;;10.28;69.42;100028.09;239217;1200;23115;-73
2021/03/29 19:03:46;;;;;;;25.67;14.87;;;;;;;10.25;69.36;100039.32;239259;1199;23541;-73
2021/03/29 19:08:49;;;;;;;26.17;15.50;;;;;;;10.23;69.60;100039.58;239197;1200;23112;-73
2021/03/29 19:13:52;;;;;;;27.90;16.35;;;;;;;10.19;69.74;100038.47;239096;1200;23102;-72
2021/03/29 19:18:55;;;;;;;30.13;16.70;;;;;;;10.15;70.00;100049.95;239369;1200;23717;-72
2021/03/29 19:24:00;;;;;;;29.60;17.00;;;;;;;10.09;70.33;100051.78;239277;1198;23114;-73
2021/03/29 19:29:04;;;;;;;26.87;15.17;;;;;;;9.99;71.22;100060.52;239700;1199;23996;-72
2021/03/29 19:34:07;;;;;;;24.13;14.93;;;;;;;9.94;70.48;100065.81;239359;1199;25022;-72
2021/03/29 19:39:10;;;;;;;23.05;14.15;;;;;;;9.93;70.78;100069.54;239172;1199;23121;-72
2021/03/29 19:44:14;;;;;;;28.83;15.00;;;;;;;9.93;70.92;100069.54;239396;1199;23117;-72
2021/03/29 19:49:16;;;;;;;23.83;13.17;;;;;;;9.90;71.41;100064.70;239403;1199;23114;-73
2021/03/29 19:54:20;;;;;;;24.67;13.50;;;;;;;9.84;71.59;100068.39;239304;1199;23112;-72
2021/03/29 19:59:24;;;;;;;22.40;11.60;;;;;;;9.72;72.74;100066.67;239345;1199;23104;-72
2021/03/29 20:04:44;;;;;;;20.40;11.60;;;;;;;9.59;72.72;100072.39;239409;1199;23074;-72
2021/03/29 20:09:46;;;;;;;19.10;11.07;;;;;;;9.54;72.90;100069.64;239232;1198;26198;-74
2021/03/29 20:14:49;;;;;;;20.90;11.77;;;;;;;9.44;73.43;100086.38;239289;1203;23134;-73
2021/03/29 20:19:52;;;;;;;19.03;11.03;;;;;;;9.40;73.51;100080.73;239124;1199;23062;-73
2021/03/29 20:24:55;;;;;;;21.30;12.60;;;;;;;9.36;74.56;100063.56;239483;1199;23106;-73
2021/03/29 20:29:58;;;;;;;21.17;13.17;;;;;;;9.27;74.50;100062.37;239328;1199;24151;-72
2021/03/29 20:35:02;;;;;;;19.47;12.10;;;;;;;9.22;75.04;100068.47;239343;1199;23138;-73
2021/03/29 20:40:06;;;;;;;27.20;13.85;;;;;;;9.17;75.37;100064.92;239320;1200;23108;-72
2021/03/29 20:45:10;;;;;;;22.95;12.90;;;;;;;9.17;75.75;100067.59;239411;1199;26274;-72
2021/03/29 20:50:13;;;;;;;19.37;11.83;;;;;;;9.21;75.54;100063.38;239267;1203;23102;-72
2021/03/29 20:55:15;;;;;;;19.23;12.10;;;;;;;9.21;75.76;100072.19;239271;1199;28317;-73
2021/03/29 21:00:19;;;;;;;22.27;13.40;;;;;;;9.18;75.77;100063.88;239340;1199;23135;-72
2021/03/29 21:05:22;;;;;;;22.45;13.70;;;;;;;9.13;76.07;100066.47;239359;1200;23340;-73
2021/03/29 21:10:25;;;;;;;22.55;13.65;;;;;;;9.07;76.79;100058.37;239329;1199;23105;-72
2021/03/29 21:15:27;;;;;;;26.25;13.95;;;;;;;8.99;76.75;100060.66;239396;1199;23125;-73
2021/03/29 21:20:30;;;;;;;22.10;12.50;;;;;;;8.96;77.02;100058.48;239352;1199;23103;-72
2021/03/29 21:25:33;;;;;;;25.27;14.60;;;;;;;8.89;77.58;100056.78;239388;1200;23148;-72
2021/03/29 21:30:38;;;;;;;31.10;17.63;;;;;;;8.84;77.81;100047.88;239343;1202;26917;-73
2021/03/29 21:35:42;;;;;;;39.63;20.20;;;;;;;8.83;78.12;100056.97;239265;1200;23283;-73
2021/03/29 21:40:46;;;;;;;42.00;21.97;;;;;;;8.83;78.00;100060.45;239275;1199;23234;-73
2021/03/29 21:45:49;;;;;;;49.30;23.80;;;;;;;8.84;78.03;100061.24;239548;1200;23250;-73
2021/03/29 21:50:51;;;;;;;47.60;26.20;;;;;;;8.85;78.14;100060.20;239267;1199;23119;-72
2021/03/29 21:55:54;;;;;;;53.50;28.77;;;;;;;8.96;78.96;100061.95;239398;1199;23167;-73
2021/03/29 22:00:57;;;;;;;47.67;27.23;;;;;;;9.10;78.66;100057.07;239233;1200;23122;-72
2021/03/29 22:06:00;;;;;;;57.40;30.43;;;;;;;9.08;78.04;100038.61;239574;1200;23102;-73
2021/03/29 22:11:04;;;;;;;53.23;31.17;;;;;;;9.09;78.65;100039.41;239460;1199;26605;-74
2021/03/29 22:16:06;;;;;;;48.57;27.70;;;;;;;9.08;78.67;100053.84;239376;1199;23262;-73
2021/03/29 22:21:09;;;;;;;50.33;28.50;;;;;;;9.10;78.55;100054.40;239327;1199;23115;-73
2021/03/29 22:26:11;;;;;;;53.77;28.10;;;;;;;9.16;78.37;100044.58;239349;1200;23165;-73
2021/03/29 22:46:25;;;;;;;39.63;23.63;;;;;;;9.24;78.58;100041.48;239226;1200;23136;-72
2021/03/29 22:51:27;;;;;;;44.57;26.53;;;;;;;9.02;78.19;100044.95;239329;1199;23124;-73
2021/03/29 22:56:30;;;;;;;48.20;28.70;;;;;;;8.97;78.82;100046.72;239252;1199;23121;-73
2021/03/29 23:01:33;;;;;;;40.27;25.83;;;;;;;8.94;78.70;100049.89;239166;1199;25984;-72
2021/03/29 23:06:40;;;;;;;36.70;22.80;;;;;;;8.87;79.39;100044.72;239478;1199;23230;-73
2021/03/29 23:11:42;;;;;;;40.00;26.17;;;;;;;8.80;79.52;100054.77;239480;1200;23118;-73
2021/03/29 23:16:46;;;;;;;41.97;25.77;;;;;;;8.80;79.64;100052.92;239404;1200;23114;-73
2021/03/29 23:21:49;;;;;;;37.03;22.30;;;;;;;8.88;79.90;100032.98;239254;1199;23111;-73
2021/03/29 23:26:52;;;;;;;43.20;26.40;;;;;;;8.96;79.38;100010.38;239288;1200;23127;-73
2021/03/29 23:31:54;;;;;;;35.07;23.40;;;;;;;9.06;79.91;100023.87;239243;1199;23194;-73
2021/03/29 23:36:57;;;;;;;35.40;22.50;;;;;;;9.13;79.66;100029.84;239247;1200;23218;-73
2021/03/29 23:42:00;;;;;;;36.87;22.50;;;;;;;9.12;79.16;100033.59;239206;1199;23176;-72
2021/03/29 23:47:02;;;;;;;33.60;20.67;;;;;;;9.13;79.41;100045.88;239384;1200;23084;-73
2021/03/29 23:52:05;;;;;;;31.93;20.63;;;;;;;9.02;79.41;100042.28;239226;1200;23109;-73
2021/03/29 23:57:08;;;;;;;34.75;21.55;;;;;;;8.94;79.54;100041.88;239286;1200;23115;-73
